sensor_id;sensor_type;location;lat;lon;timestamp;P1;durP1;ratioP1;P2;durP2;ratioP2
52948;SDS011;38812;50.942;3.644;2022-09-09T00:04:40;6.45;;;1.45;;
52948;SDS011;38812;50.942;3.644;2022-09-09T00:07:18;7.20;;;1.98;;
52948;SDS011;38812;50.942;3.644;2022-09-09T00:09:49;6.95;;;1.70;;
52948;SDS011;38812;50.942;3.644;2022-09-09T00:15:23;5.32;;;1.65;;
52948;SDS011;38812;50.942;3.644;2022-09-09T00:20:48;3.17;;;1.65;;
52948;SDS011;38812;50.942;3.644;2022-09-09T00:29:00;5.45;;;1.42;;
52948;SDS011;38812;50.942;3.644;2022-09-09T00:31:35;6.05;;;1.55;;
52948;SDS011;38812;50.942;3.644;2022-09-09T00:34:12;5.97;;;1.58;;
52948;SDS011;38812;50.942;3.644;2022-09-09T00:36:39;4.80;;;1.27;;
52948;SDS011;38812;50.942;3.644;2022-09-09T00:39:08;11.35;;;2.05;;
52948;SDS011;38812;50.942;3.644;2022-09-09T00:44:56;7.90;;;1.92;;
52948;SDS011;38812;50.942;3.644;2022-09-09T00:47:40;7.32;;;2.13;;
52948;SDS011;38812;50.942;3.644;2022-09-09T00:53:19;9.25;;;1.63;;
52948;SDS011;38812;50.942;3.644;2022-09-09T00:58:40;7.35;;;1.80;;
52948;SDS011;38812;50.942;3.644;2022-09-09T01:01:11;7.78;;;1.45;;
52948;SDS011;38812;50.942;3.644;2022-09-09T01:14:18;7.93;;;1.52;;
52948;SDS011;38812;50.942;3.644;2022-09-09T01:16:45;7.60;;;2.37;;
52948;SDS011;38812;50.942;3.644;2022-09-09T01:19:15;6.68;;;1.50;;
52948;SDS011;38812;50.942;3.644;2022-09-09T01:22:03;10.77;;;1.58;;
52948;SDS011;38812;50.942;3.644;2022-09-09T01:27:33;5.22;;;1.60;;
52948;SDS011;38812;50.942;3.644;2022-09-09T01:30:00;7.38;;;1.33;;
52948;SDS011;38812;50.942;3.644;2022-09-09T01:32:43;10.60;;;1.35;;
52948;SDS011;38812;50.942;3.644;2022-09-09T01:40:20;6.20;;;1.40;;
52948;SDS011;38812;50.942;3.644;2022-09-09T01:42:46;8.07;;;1.30;;
52948;SDS011;38812;50.942;3.644;2022-09-09T01:45:11;6.85;;;1.40;;
52948;SDS011;38812;50.942;3.644;2022-09-09T01:47:37;5.57;;;1.48;;
52948;SDS011;38812;50.942;3.644;2022-09-09T01:50:02;6.68;;;1.20;;
52948;SDS011;38812;50.942;3.644;2022-09-09T01:52:28;4.25;;;1.35;;
52948;SDS011;38812;50.942;3.644;2022-09-09T01:54:55;7.38;;;1.60;;
52948;SDS011;38812;50.942;3.644;2022-09-09T01:57:31;9.05;;;1.65;;
52948;SDS011;38812;50.942;3.644;2022-09-09T02:00:06;7.45;;;1.40;;
52948;SDS011;38812;50.942;3.644;2022-09-09T02:08:11;10.63;;;1.73;;
52948;SDS011;38812;50.942;3.644;2022-09-09T02:10:54;6.65;;;1.60;;
52948;SDS011;38812;50.942;3.644;2022-09-09T02:13:26;8.30;;;1.52;;
52948;SDS011;38812;50.942;3.644;2022-09-09T02:21:52;15.20;;;2.88;;
52948;SDS011;38812;50.942;3.644;2022-09-09T02:24:20;6.47;;;1.35;;
52948;SDS011;38812;50.942;3.644;2022-09-09T02:26:47;8.52;;;1.45;;
52948;SDS011;38812;50.942;3.644;2022-09-09T02:29:19;10.07;;;2.22;;
52948;SDS011;38812;50.942;3.644;2022-09-09T02:31:49;14.25;;;2.40;;
52948;SDS011;38812;50.942;3.644;2022-09-09T02:34:15;14.15;;;1.95;;
52948;SDS011;38812;50.942;3.644;2022-09-09T02:36:45;11.90;;;1.85;;
52948;SDS011;38812;50.942;3.644;2022-09-09T02:39:12;10.50;;;1.67;;
52948;SDS011;38812;50.942;3.644;2022-09-09T02:41:41;14.63;;;3.30;;
52948;SDS011;38812;50.942;3.644;2022-09-09T02:44:14;10.10;;;2.20;;
52948;SDS011;38812;50.942;3.644;2022-09-09T02:55:18;12.23;;;1.90;;
52948;SDS011;38812;50.942;3.644;2022-09-09T02:57:49;14.88;;;2.08;;
52948;SDS011;38812;50.942;3.644;2022-09-09T03:00:16;16.55;;;2.40;;
52948;SDS011;38812;50.942;3.644;2022-09-09T03:02:49;8.18;;;1.90;;
52948;SDS011;38812;50.942;3.644;2022-09-09T03:05:14;6.45;;;1.60;;
52948;SDS011;38812;50.942;3.644;2022-09-09T03:07:40;7.32;;;1.70;;
52948;SDS011;38812;50.942;3.644;2022-09-09T03:10:05;9.88;;;2.38;;
52948;SDS011;38812;50.942;3.644;2022-09-09T03:12:31;8.00;;;1.40;;
52948;SDS011;38812;50.942;3.644;2022-09-09T03:14:58;8.73;;;1.67;;
52948;SDS011;38812;50.942;3.644;2022-09-09T03:17:24;12.02;;;2.55;;
52948;SDS011;38812;50.942;3.644;2022-09-09T03:19:49;11.18;;;1.92;;
52948;SDS011;38812;50.942;3.644;2022-09-09T03:22:19;10.95;;;2.40;;
52948;SDS011;38812;50.942;3.644;2022-09-09T03:24:45;9.05;;;1.90;;
52948;SDS011;38812;50.942;3.644;2022-09-09T03:27:11;11.50;;;1.90;;
52948;SDS011;38812;50.942;3.644;2022-09-09T03:29:39;13.07;;;2.67;;
52948;SDS011;38812;50.942;3.644;2022-09-09T03:32:04;16.73;;;2.72;;
52948;SDS011;38812;50.942;3.644;2022-09-09T03:34:29;12.52;;;2.33;;
52948;SDS011;38812;50.942;3.644;2022-09-09T03:36:55;6.05;;;1.95;;
52948;SDS011;38812;50.942;3.644;2022-09-09T03:39:21;11.68;;;2.38;;
52948;SDS011;38812;50.942;3.644;2022-09-09T03:41:46;11.35;;;1.98;;
52948;SDS011;38812;50.942;3.644;2022-09-09T03:44:13;11.32;;;2.38;;
52948;SDS011;38812;50.942;3.644;2022-09-09T03:46:39;8.40;;;1.77;;
52948;SDS011;38812;50.942;3.644;2022-09-09T03:49:04;8.25;;;1.75;;
52948;SDS011;38812;50.942;3.644;2022-09-09T03:51:29;15.30;;;2.47;;
52948;SDS011;38812;50.942;3.644;2022-09-09T03:53:55;12.57;;;3.03;;
52948;SDS011;38812;50.942;3.644;2022-09-09T03:56:23;8.40;;;2.50;;
52948;SDS011;38812;50.942;3.644;2022-09-09T03:58:49;13.93;;;3.03;;
52948;SDS011;38812;50.942;3.644;2022-09-09T04:01:14;25.65;;;3.20;;
52948;SDS011;38812;50.942;3.644;2022-09-09T04:03:40;15.55;;;2.85;;
52948;SDS011;38812;50.942;3.644;2022-09-09T04:06:06;12.07;;;2.22;;
52948;SDS011;38812;50.942;3.644;2022-09-09T04:08:34;10.55;;;2.25;;
52948;SDS011;38812;50.942;3.644;2022-09-09T04:11:01;9.18;;;2.13;;
52948;SDS011;38812;50.942;3.644;2022-09-09T04:13:30;17.88;;;2.78;;
52948;SDS011;38812;50.942;3.644;2022-09-09T04:15:56;12.45;;;2.40;;
52948;SDS011;38812;50.942;3.644;2022-09-09T04:18:23;18.90;;;2.35;;
52948;SDS011;38812;50.942;3.644;2022-09-09T04:20:50;13.40;;;2.15;;
52948;SDS011;38812;50.942;3.644;2022-09-09T04:23:16;11.38;;;1.90;;
52948;SDS011;38812;50.942;3.644;2022-09-09T04:25:52;16.17;;;2.50;;
52948;SDS011;38812;50.942;3.644;2022-09-09T04:28:19;11.63;;;2.55;;
52948;SDS011;38812;50.942;3.644;2022-09-09T04:30:46;26.90;;;2.97;;
52948;SDS011;38812;50.942;3.644;2022-09-09T04:33:12;14.15;;;2.28;;
52948;SDS011;38812;50.942;3.644;2022-09-09T04:35:39;13.05;;;2.40;;
52948;SDS011;38812;50.942;3.644;2022-09-09T04:38:08;12.98;;;2.53;;
52948;SDS011;38812;50.942;3.644;2022-09-09T04:40:34;10.70;;;2.17;;
52948;SDS011;38812;50.942;3.644;2022-09-09T04:43:00;13.60;;;2.35;;
52948;SDS011;38812;50.942;3.644;2022-09-09T04:45:28;13.07;;;2.42;;
52948;SDS011;38812;50.942;3.644;2022-09-09T04:47:54;12.93;;;3.20;;
52948;SDS011;38812;50.942;3.644;2022-09-09T04:50:20;18.98;;;3.08;;
52948;SDS011;38812;50.942;3.644;2022-09-09T04:52:45;16.55;;;2.63;;
52948;SDS011;38812;50.942;3.644;2022-09-09T04:55:11;12.98;;;3.63;;
52948;SDS011;38812;50.942;3.644;2022-09-09T04:57:37;29.23;;;3.22;;
52948;SDS011;38812;50.942;3.644;2022-09-09T05:00:03;14.27;;;2.85;;
52948;SDS011;38812;50.942;3.644;2022-09-09T05:02:29;9.95;;;2.28;;
52948;SDS011;38812;50.942;3.644;2022-09-09T05:04:55;16.80;;;2.67;;
52948;SDS011;38812;50.942;3.644;2022-09-09T05:07:21;10.60;;;3.47;;
52948;SDS011;38812;50.942;3.644;2022-09-09T05:09:46;12.65;;;2.72;;
52948;SDS011;38812;50.942;3.644;2022-09-09T05:12:14;8.43;;;1.95;;
52948;SDS011;38812;50.942;3.644;2022-09-09T05:14:41;12.98;;;2.42;;
52948;SDS011;38812;50.942;3.644;2022-09-09T05:17:07;13.88;;;3.22;;
52948;SDS011;38812;50.942;3.644;2022-09-09T05:19:32;12.60;;;2.17;;
52948;SDS011;38812;50.942;3.644;2022-09-09T05:21:58;12.65;;;2.03;;
52948;SDS011;38812;50.942;3.644;2022-09-09T05:24:23;16.80;;;2.33;;
52948;SDS011;38812;50.942;3.644;2022-09-09T05:26:49;15.57;;;2.33;;
52948;SDS011;38812;50.942;3.644;2022-09-09T05:29:14;11.38;;;2.22;;
52948;SDS011;38812;50.942;3.644;2022-09-09T05:31:39;11.38;;;2.58;;
52948;SDS011;38812;50.942;3.644;2022-09-09T05:34:06;19.30;;;3.30;;
52948;SDS011;38812;50.942;3.644;2022-09-09T05:36:31;16.40;;;2.70;;
52948;SDS011;38812;50.942;3.644;2022-09-09T05:38:57;14.18;;;2.55;;
52948;SDS011;38812;50.942;3.644;2022-09-09T05:41:22;10.25;;;1.90;;
52948;SDS011;38812;50.942;3.644;2022-09-09T05:43:48;8.00;;;2.25;;
52948;SDS011;38812;50.942;3.644;2022-09-09T05:46:14;14.65;;;2.42;;
52948;SDS011;38812;50.942;3.644;2022-09-09T05:48:42;9.00;;;1.90;;
52948;SDS011;38812;50.942;3.644;2022-09-09T05:51:12;11.50;;;2.72;;
52948;SDS011;38812;50.942;3.644;2022-09-09T05:53:41;19.83;;;2.83;;
52948;SDS011;38812;50.942;3.644;2022-09-09T05:56:08;10.65;;;1.88;;
52948;SDS011;38812;50.942;3.644;2022-09-09T05:58:35;9.02;;;2.83;;
52948;SDS011;38812;50.942;3.644;2022-09-09T06:01:02;13.15;;;2.95;;
52948;SDS011;38812;50.942;3.644;2022-09-09T06:03:41;13.80;;;2.38;;
52948;SDS011;38812;50.942;3.644;2022-09-09T06:06:09;12.45;;;2.90;;
52948;SDS011;38812;50.942;3.644;2022-09-09T06:08:41;18.85;;;2.60;;
52948;SDS011;38812;50.942;3.644;2022-09-09T06:11:11;9.45;;;2.45;;
52948;SDS011;38812;50.942;3.644;2022-09-09T06:13:38;10.18;;;2.22;;
52948;SDS011;38812;50.942;3.644;2022-09-09T06:16:05;13.95;;;3.13;;
52948;SDS011;38812;50.942;3.644;2022-09-09T06:18:33;14.20;;;3.20;;
52948;SDS011;38812;50.942;3.644;2022-09-09T06:23:24;16.48;;;2.60;;
52948;SDS011;38812;50.942;3.644;2022-09-09T06:25:50;13.13;;;3.53;;
52948;SDS011;38812;50.942;3.644;2022-09-09T06:28:16;13.95;;;3.28;;
52948;SDS011;38812;50.942;3.644;2022-09-09T06:30:42;11.40;;;1.92;;
52948;SDS011;38812;50.942;3.644;2022-09-09T06:33:08;8.48;;;2.40;;
52948;SDS011;38812;50.942;3.644;2022-09-09T06:35:34;13.85;;;2.40;;
52948;SDS011;38812;50.942;3.644;2022-09-09T06:38:00;10.88;;;2.55;;
52948;SDS011;38812;50.942;3.644;2022-09-09T06:40:25;11.07;;;2.40;;
52948;SDS011;38812;50.942;3.644;2022-09-09T06:42:51;10.00;;;1.73;;
52948;SDS011;38812;50.942;3.644;2022-09-09T06:45:16;13.73;;;2.38;;
52948;SDS011;38812;50.942;3.644;2022-09-09T06:47:42;13.40;;;2.85;;
52948;SDS011;38812;50.942;3.644;2022-09-09T06:50:08;14.98;;;2.75;;
52948;SDS011;38812;50.942;3.644;2022-09-09T06:52:35;15.27;;;2.33;;
52948;SDS011;38812;50.942;3.644;2022-09-09T06:55:00;6.40;;;2.13;;
52948;SDS011;38812;50.942;3.644;2022-09-09T06:57:26;13.82;;;2.30;;
52948;SDS011;38812;50.942;3.644;2022-09-09T06:59:51;10.02;;;2.53;;
52948;SDS011;38812;50.942;3.644;2022-09-09T07:02:16;7.03;;;1.67;;
52948;SDS011;38812;50.942;3.644;2022-09-09T07:04:42;7.65;;;1.90;;
52948;SDS011;38812;50.942;3.644;2022-09-09T07:07:07;13.38;;;2.40;;
52948;SDS011;38812;50.942;3.644;2022-09-09T07:09:34;12.32;;;3.42;;
52948;SDS011;38812;50.942;3.644;2022-09-09T07:12:00;15.73;;;2.60;;
52948;SDS011;38812;50.942;3.644;2022-09-09T07:14:26;14.00;;;2.83;;
52948;SDS011;38812;50.942;3.644;2022-09-09T07:16:52;16.30;;;2.72;;
52948;SDS011;38812;50.942;3.644;2022-09-09T07:19:17;12.48;;;2.42;;
52948;SDS011;38812;50.942;3.644;2022-09-09T07:21:43;6.90;;;2.17;;
52948;SDS011;38812;50.942;3.644;2022-09-09T07:24:10;16.20;;;2.67;;
52948;SDS011;38812;50.942;3.644;2022-09-09T07:26:36;11.52;;;1.50;;
52948;SDS011;38812;50.942;3.644;2022-09-09T07:29:02;15.52;;;2.60;;
52948;SDS011;38812;50.942;3.644;2022-09-09T07:31:29;11.30;;;2.25;;
52948;SDS011;38812;50.942;3.644;2022-09-09T07:34:00;7.82;;;1.95;;
52948;SDS011;38812;50.942;3.644;2022-09-09T07:36:27;13.45;;;2.22;;
52948;SDS011;38812;50.942;3.644;2022-09-09T07:38:58;13.33;;;2.17;;
52948;SDS011;38812;50.942;3.644;2022-09-09T07:41:29;14.93;;;2.10;;
52948;SDS011;38812;50.942;3.644;2022-09-09T07:44:05;10.05;;;2.60;;
52948;SDS011;38812;50.942;3.644;2022-09-09T07:46:31;9.15;;;1.70;;
52948;SDS011;38812;50.942;3.644;2022-09-09T07:48:57;11.95;;;2.35;;
52948;SDS011;38812;50.942;3.644;2022-09-09T07:51:24;12.38;;;2.05;;
52948;SDS011;38812;50.942;3.644;2022-09-09T07:53:53;12.18;;;2.83;;
52948;SDS011;38812;50.942;3.644;2022-09-09T07:56:20;13.27;;;2.25;;
52948;SDS011;38812;50.942;3.644;2022-09-09T07:58:49;10.05;;;2.40;;
52948;SDS011;38812;50.942;3.644;2022-09-09T08:01:17;12.30;;;1.98;;
52948;SDS011;38812;50.942;3.644;2022-09-09T08:03:46;11.45;;;2.10;;
52948;SDS011;38812;50.942;3.644;2022-09-09T08:06:12;7.88;;;2.45;;
52948;SDS011;38812;50.942;3.644;2022-09-09T08:08:38;13.18;;;2.15;;
52948;SDS011;38812;50.942;3.644;2022-09-09T08:11:10;14.63;;;2.72;;
52948;SDS011;38812;50.942;3.644;2022-09-09T08:13:41;10.98;;;1.90;;
52948;SDS011;38812;50.942;3.644;2022-09-09T08:18:34;17.60;;;1.80;;
52948;SDS011;38812;50.942;3.644;2022-09-09T08:21:09;6.22;;;1.30;;
52948;SDS011;38812;50.942;3.644;2022-09-09T08:23:36;9.38;;;1.58;;
52948;SDS011;38812;50.942;3.644;2022-09-09T08:26:04;10.95;;;1.92;;
52948;SDS011;38812;50.942;3.644;2022-09-09T08:28:30;9.43;;;1.50;;
52948;SDS011;38812;50.942;3.644;2022-09-09T08:31:04;8.38;;;1.80;;
52948;SDS011;38812;50.942;3.644;2022-09-09T08:33:34;11.65;;;1.80;;
52948;SDS011;38812;50.942;3.644;2022-09-09T08:36:01;9.60;;;1.70;;
52948;SDS011;38812;50.942;3.644;2022-09-09T08:38:26;6.70;;;1.90;;
52948;SDS011;38812;50.942;3.644;2022-09-09T08:40:53;5.45;;;1.50;;
52948;SDS011;38812;50.942;3.644;2022-09-09T08:43:27;5.68;;;1.48;;
52948;SDS011;38812;50.942;3.644;2022-09-09T08:50:57;7.35;;;1.45;;
52948;SDS011;38812;50.942;3.644;2022-09-09T08:53:27;6.30;;;1.45;;
52948;SDS011;38812;50.942;3.644;2022-09-09T08:55:57;10.23;;;2.08;;
52948;SDS011;38812;50.942;3.644;2022-09-09T08:58:32;5.03;;;1.17;;
52948;SDS011;38812;50.942;3.644;2022-09-09T09:11:23;8.57;;;1.92;;
52948;SDS011;38812;50.942;3.644;2022-09-09T09:13:57;7.95;;;2.13;;
52948;SDS011;38812;50.942;3.644;2022-09-09T09:19:13;7.32;;;1.63;;
52948;SDS011;38812;50.942;3.644;2022-09-09T09:21:44;5.18;;;1.40;;
52948;SDS011;38812;50.942;3.644;2022-09-09T09:24:16;10.27;;;1.88;;
52948;SDS011;38812;50.942;3.644;2022-09-09T09:26:43;8.57;;;2.08;;
52948;SDS011;38812;50.942;3.644;2022-09-09T09:29:16;10.10;;;2.17;;
52948;SDS011;38812;50.942;3.644;2022-09-09T09:31:45;5.15;;;1.45;;
52948;SDS011;38812;50.942;3.644;2022-09-09T09:34:16;8.00;;;1.40;;
52948;SDS011;38812;50.942;3.644;2022-09-09T09:36:43;5.80;;;1.77;;
52948;SDS011;38812;50.942;3.644;2022-09-09T09:39:22;9.55;;;1.55;;
52948;SDS011;38812;50.942;3.644;2022-09-09T09:41:52;9.88;;;2.38;;
52948;SDS011;38812;50.942;3.644;2022-09-09T09:44:29;8.57;;;1.85;;
52948;SDS011;38812;50.942;3.644;2022-09-09T09:47:07;8.82;;;2.00;;
52948;SDS011;38812;50.942;3.644;2022-09-09T09:49:37;7.15;;;2.28;;
52948;SDS011;38812;50.942;3.644;2022-09-09T09:52:03;6.05;;;1.50;;
52948;SDS011;38812;50.942;3.644;2022-09-09T09:54:30;7.50;;;1.67;;
52948;SDS011;38812;50.942;3.644;2022-09-09T09:57:09;3.65;;;1.13;;
52948;SDS011;38812;50.942;3.644;2022-09-09T09:59:36;9.52;;;1.52;;
52948;SDS011;38812;50.942;3.644;2022-09-09T10:05:04;8.40;;;1.50;;
52948;SDS011;38812;50.942;3.644;2022-09-09T10:07:37;6.72;;;1.50;;
52948;SDS011;38812;50.942;3.644;2022-09-09T10:10:04;7.07;;;1.40;;
52948;SDS011;38812;50.942;3.644;2022-09-09T10:15:15;7.82;;;1.30;;
52948;SDS011;38812;50.942;3.644;2022-09-09T10:28:58;5.15;;;0.93;;
52948;SDS011;38812;50.942;3.644;2022-09-09T10:34:34;7.20;;;1.27;;
52948;SDS011;38812;50.942;3.644;2022-09-09T10:37:02;9.48;;;1.95;;
52948;SDS011;38812;50.942;3.644;2022-09-09T10:39:39;10.32;;;1.48;;
52948;SDS011;38812;50.942;3.644;2022-09-09T10:42:12;6.80;;;1.40;;
52948;SDS011;38812;50.942;3.644;2022-09-09T10:44:50;5.55;;;1.40;;
52948;SDS011;38812;50.942;3.644;2022-09-09T10:47:43;7.95;;;1.27;;
52948;SDS011;38812;50.942;3.644;2022-09-09T10:55:59;9.05;;;1.45;;
52948;SDS011;38812;50.942;3.644;2022-09-09T10:58:56;11.48;;;2.33;;
52948;SDS011;38812;50.942;3.644;2022-09-09T11:06:57;7.60;;;1.50;;
52948;SDS011;38812;50.942;3.644;2022-09-09T11:09:30;6.72;;;1.65;;
52948;SDS011;38812;50.942;3.644;2022-09-09T11:12:09;6.45;;;1.60;;
52948;SDS011;38812;50.942;3.644;2022-09-09T11:14:49;4.88;;;1.55;;
52948;SDS011;38812;50.942;3.644;2022-09-09T11:17:24;4.63;;;0.98;;
52948;SDS011;38812;50.942;3.644;2022-09-09T11:20:17;2.70;;;1.48;;
52948;SDS011;38812;50.942;3.644;2022-09-09T11:22:48;3.15;;;1.48;;
52948;SDS011;38812;50.942;3.644;2022-09-09T11:25:19;2.63;;;1.17;;
52948;SDS011;38812;50.942;3.644;2022-09-09T11:41:21;5.10;;;1.60;;
52948;SDS011;38812;50.942;3.644;2022-09-09T11:43:47;6.20;;;0.80;;
52948;SDS011;38812;50.942;3.644;2022-09-09T11:46:39;5.88;;;1.67;;
52948;SDS011;38812;50.942;3.644;2022-09-09T11:49:06;2.85;;;0.90;;
52948;SDS011;38812;50.942;3.644;2022-09-09T11:52:18;2.40;;;1.17;;
52948;SDS011;38812;50.942;3.644;2022-09-09T11:54:48;4.30;;;1.15;;
52948;SDS011;38812;50.942;3.644;2022-09-09T12:00:00;6.70;;;1.00;;
52948;SDS011;38812;50.942;3.644;2022-09-09T12:02:27;10.38;;;1.40;;
52948;SDS011;38812;50.942;3.644;2022-09-09T12:10:02;5.30;;;1.02;;
52948;SDS011;38812;50.942;3.644;2022-09-09T12:12:32;3.25;;;1.70;;
52948;SDS011;38812;50.942;3.644;2022-09-09T12:15:17;7.65;;;1.20;;
52948;SDS011;38812;50.942;3.644;2022-09-09T12:17:46;5.30;;;1.35;;
52948;SDS011;38812;50.942;3.644;2022-09-09T12:28:18;8.70;;;1.00;;
52948;SDS011;38812;50.942;3.644;2022-09-09T12:33:39;5.88;;;1.10;;
52948;SDS011;38812;50.942;3.644;2022-09-09T12:36:14;3.25;;;1.30;;
52948;SDS011;38812;50.942;3.644;2022-09-09T12:38:44;6.03;;;1.13;;
52948;SDS011;38812;50.942;3.644;2022-09-09T12:43:49;5.50;;;1.15;;
52948;SDS011;38812;50.942;3.644;2022-09-09T12:49:23;6.30;;;1.45;;
52948;SDS011;38812;50.942;3.644;2022-09-09T12:51:52;6.68;;;0.98;;
52948;SDS011;38812;50.942;3.644;2022-09-09T12:54:18;3.95;;;1.15;;
52948;SDS011;38812;50.942;3.644;2022-09-09T12:56:45;3.42;;;1.05;;
52948;SDS011;38812;50.942;3.644;2022-09-09T12:59:27;3.47;;;1.10;;
52948;SDS011;38812;50.942;3.644;2022-09-09T13:02:01;5.72;;;1.30;;
52948;SDS011;38812;50.942;3.644;2022-09-09T13:04:26;7.25;;;1.23;;
52948;SDS011;38812;50.942;3.644;2022-09-09T13:06:51;3.92;;;0.80;;
52948;SDS011;38812;50.942;3.644;2022-09-09T13:09:17;3.28;;;1.15;;
52948;SDS011;38812;50.942;3.644;2022-09-09T13:11:44;7.60;;;1.75;;
52948;SDS011;38812;50.942;3.644;2022-09-09T13:14:19;7.57;;;1.52;;
52948;SDS011;38812;50.942;3.644;2022-09-09T13:16:54;3.75;;;1.20;;
52948;SDS011;38812;50.942;3.644;2022-09-09T13:19:21;3.58;;;0.88;;
52948;SDS011;38812;50.942;3.644;2022-09-09T13:21:50;3.88;;;1.30;;
52948;SDS011;38812;50.942;3.644;2022-09-09T13:24:25;6.13;;;1.50;;
52948;SDS011;38812;50.942;3.644;2022-09-09T13:26:56;3.05;;;1.13;;
52948;SDS011;38812;50.942;3.644;2022-09-09T13:29:22;3.38;;;0.95;;
52948;SDS011;38812;50.942;3.644;2022-09-09T13:31:48;4.45;;;1.40;;
52948;SDS011;38812;50.942;3.644;2022-09-09T13:34:30;3.78;;;0.93;;
52948;SDS011;38812;50.942;3.644;2022-09-09T13:36:59;5.28;;;1.30;;
52948;SDS011;38812;50.942;3.644;2022-09-09T13:39:30;3.22;;;1.20;;
52948;SDS011;38812;50.942;3.644;2022-09-09T13:41:58;3.40;;;0.98;;
52948;SDS011;38812;50.942;3.644;2022-09-09T13:44:24;3.42;;;1.20;;
52948;SDS011;38812;50.942;3.644;2022-09-09T13:49:46;4.13;;;1.30;;
52948;SDS011;38812;50.942;3.644;2022-09-09T13:52:13;5.50;;;1.23;;
52948;SDS011;38812;50.942;3.644;2022-09-09T13:54:41;6.13;;;1.30;;
52948;SDS011;38812;50.942;3.644;2022-09-09T13:57:17;4.82;;;1.33;;
52948;SDS011;38812;50.942;3.644;2022-09-09T13:59:50;3.90;;;1.00;;
52948;SDS011;38812;50.942;3.644;2022-09-09T14:02:17;4.18;;;1.17;;
52948;SDS011;38812;50.942;3.644;2022-09-09T14:04:43;3.88;;;0.90;;
52948;SDS011;38812;50.942;3.644;2022-09-09T14:07:12;4.35;;;1.27;;
52948;SDS011;38812;50.942;3.644;2022-09-09T14:09:39;4.72;;;1.30;;
52948;SDS011;38812;50.942;3.644;2022-09-09T14:12:05;4.00;;;1.27;;
52948;SDS011;38812;50.942;3.644;2022-09-09T14:14:31;3.72;;;1.02;;
52948;SDS011;38812;50.942;3.644;2022-09-09T14:16:56;6.43;;;1.42;;
52948;SDS011;38812;50.942;3.644;2022-09-09T14:19:21;8.40;;;1.65;;
52948;SDS011;38812;50.942;3.644;2022-09-09T14:21:47;7.05;;;0.90;;
52948;SDS011;38812;50.942;3.644;2022-09-09T14:24:13;4.90;;;0.98;;
52948;SDS011;38812;50.942;3.644;2022-09-09T14:26:39;6.40;;;1.45;;
52948;SDS011;38812;50.942;3.644;2022-09-09T14:29:04;6.78;;;1.70;;
52948;SDS011;38812;50.942;3.644;2022-09-09T14:31:29;7.53;;;1.58;;
52948;SDS011;38812;50.942;3.644;2022-09-09T14:33:55;4.22;;;1.25;;
52948;SDS011;38812;50.942;3.644;2022-09-09T14:36:21;2.80;;;1.13;;
52948;SDS011;38812;50.942;3.644;2022-09-09T14:38:46;5.65;;;1.50;;
52948;SDS011;38812;50.942;3.644;2022-09-09T14:41:13;6.88;;;1.40;;
52948;SDS011;38812;50.942;3.644;2022-09-09T14:43:44;4.70;;;1.60;;
52948;SDS011;38812;50.942;3.644;2022-09-09T14:46:11;4.90;;;1.25;;
52948;SDS011;38812;50.942;3.644;2022-09-09T14:48:39;7.10;;;1.45;;
52948;SDS011;38812;50.942;3.644;2022-09-09T14:51:06;7.25;;;1.25;;
52948;SDS011;38812;50.942;3.644;2022-09-09T14:53:32;8.13;;;2.05;;
52948;SDS011;38812;50.942;3.644;2022-09-09T14:56:07;2.35;;;0.98;;
52948;SDS011;38812;50.942;3.644;2022-09-09T14:58:34;3.28;;;1.30;;
52948;SDS011;38812;50.942;3.644;2022-09-09T15:01:04;3.38;;;1.30;;
52948;SDS011;38812;50.942;3.644;2022-09-09T15:03:37;6.50;;;2.10;;
52948;SDS011;38812;50.942;3.644;2022-09-09T15:06:11;8.35;;;1.20;;
52948;SDS011;38812;50.942;3.644;2022-09-09T15:08:39;4.65;;;1.10;;
52948;SDS011;38812;50.942;3.644;2022-09-09T15:11:06;8.88;;;1.65;;
52948;SDS011;38812;50.942;3.644;2022-09-09T15:13:32;5.68;;;1.65;;
52948;SDS011;38812;50.942;3.644;2022-09-09T15:16:06;2.47;;;0.85;;
52948;SDS011;38812;50.942;3.644;2022-09-09T15:18:33;4.50;;;1.60;;
52948;SDS011;38812;50.942;3.644;2022-09-09T15:21:01;3.22;;;1.73;;
52948;SDS011;38812;50.942;3.644;2022-09-09T15:23:31;3.22;;;1.05;;
52948;SDS011;38812;50.942;3.644;2022-09-09T15:25:57;6.10;;;1.40;;
52948;SDS011;38812;50.942;3.644;2022-09-09T15:28:23;4.32;;;1.20;;
52948;SDS011;38812;50.942;3.644;2022-09-09T15:30:48;3.72;;;0.90;;
52948;SDS011;38812;50.942;3.644;2022-09-09T15:33:15;10.93;;;1.00;;
52948;SDS011;38812;50.942;3.644;2022-09-09T15:35:41;8.38;;;1.42;;
52948;SDS011;38812;50.942;3.644;2022-09-09T15:38:06;10.45;;;1.95;;
52948;SDS011;38812;50.942;3.644;2022-09-09T15:40:31;7.20;;;1.38;;
52948;SDS011;38812;50.942;3.644;2022-09-09T15:42:59;4.43;;;0.85;;
52948;SDS011;38812;50.942;3.644;2022-09-09T15:45:25;16.20;;;1.65;;
52948;SDS011;38812;50.942;3.644;2022-09-09T15:47:51;3.40;;;1.00;;
52948;SDS011;38812;50.942;3.644;2022-09-09T15:50:17;4.45;;;1.13;;
52948;SDS011;38812;50.942;3.644;2022-09-09T15:52:42;7.18;;;1.73;;
52948;SDS011;38812;50.942;3.644;2022-09-09T15:55:08;5.43;;;1.60;;
52948;SDS011;38812;50.942;3.644;2022-09-09T15:57:33;8.80;;;1.90;;
52948;SDS011;38812;50.942;3.644;2022-09-09T15:59:59;3.05;;;1.40;;
52948;SDS011;38812;50.942;3.644;2022-09-09T16:02:26;1.67;;;1.17;;
52948;SDS011;38812;50.942;3.644;2022-09-09T16:04:51;4.72;;;1.55;;
52948;SDS011;38812;50.942;3.644;2022-09-09T16:07:17;7.90;;;2.50;;
52948;SDS011;38812;50.942;3.644;2022-09-09T16:09:42;6.22;;;1.77;;
52948;SDS011;38812;50.942;3.644;2022-09-09T16:12:08;10.65;;;1.92;;
52948;SDS011;38812;50.942;3.644;2022-09-09T16:14:38;3.47;;;1.40;;
52948;SDS011;38812;50.942;3.644;2022-09-09T16:17:04;7.47;;;2.38;;
52948;SDS011;38812;50.942;3.644;2022-09-09T16:19:31;5.82;;;1.17;;
52948;SDS011;38812;50.942;3.644;2022-09-09T16:21:57;5.55;;;1.90;;
52948;SDS011;38812;50.942;3.644;2022-09-09T16:24:22;4.07;;;1.70;;
52948;SDS011;38812;50.942;3.644;2022-09-09T16:26:52;7.75;;;1.77;;
52948;SDS011;38812;50.942;3.644;2022-09-09T16:29:19;4.15;;;1.30;;
52948;SDS011;38812;50.942;3.644;2022-09-09T16:31:47;2.85;;;1.10;;
52948;SDS011;38812;50.942;3.644;2022-09-09T16:34:14;3.78;;;1.35;;
52948;SDS011;38812;50.942;3.644;2022-09-09T16:36:40;4.95;;;1.60;;
52948;SDS011;38812;50.942;3.644;2022-09-09T16:39:09;6.97;;;1.58;;
52948;SDS011;38812;50.942;3.644;2022-09-09T16:41:37;3.15;;;1.20;;
52948;SDS011;38812;50.942;3.644;2022-09-09T16:44:05;4.18;;;1.30;;
52948;SDS011;38812;50.942;3.644;2022-09-09T16:46:32;6.65;;;1.60;;
52948;SDS011;38812;50.942;3.644;2022-09-09T16:49:00;9.25;;;1.33;;
52948;SDS011;38812;50.942;3.644;2022-09-09T16:51:27;3.90;;;1.30;;
52948;SDS011;38812;50.942;3.644;2022-09-09T16:53:54;6.60;;;1.48;;
52948;SDS011;38812;50.942;3.644;2022-09-09T16:56:23;3.38;;;0.90;;
52948;SDS011;38812;50.942;3.644;2022-09-09T16:58:59;5.15;;;1.48;;
52948;SDS011;38812;50.942;3.644;2022-09-09T17:01:27;7.28;;;1.20;;
52948;SDS011;38812;50.942;3.644;2022-09-09T17:04:00;13.10;;;1.85;;
52948;SDS011;38812;50.942;3.644;2022-09-09T17:06:27;11.98;;;1.85;;
52948;SDS011;38812;50.942;3.644;2022-09-09T17:08:54;6.70;;;1.52;;
52948;SDS011;38812;50.942;3.644;2022-09-09T17:11:21;6.70;;;1.50;;
52948;SDS011;38812;50.942;3.644;2022-09-09T17:13:46;7.95;;;1.92;;
52948;SDS011;38812;50.942;3.644;2022-09-09T17:16:13;7.47;;;1.73;;
52948;SDS011;38812;50.942;3.644;2022-09-09T17:18:40;5.85;;;1.50;;
52948;SDS011;38812;50.942;3.644;2022-09-09T17:21:06;7.88;;;1.67;;
52948;SDS011;38812;50.942;3.644;2022-09-09T17:23:33;8.05;;;1.50;;
52948;SDS011;38812;50.942;3.644;2022-09-09T17:25:59;7.90;;;1.50;;
52948;SDS011;38812;50.942;3.644;2022-09-09T17:28:25;10.82;;;3.67;;
52948;SDS011;38812;50.942;3.644;2022-09-09T17:30:56;12.73;;;1.70;;